SBRF

Guararapes - Gilberto Freyre International Airport

Recife, Brazil
TAF SBRF 182200Z 1900/1924 14011KT 9000 SCT020 TN26/1908Z TX30/1915Z BECMG 1911/1913 12015KT BECMG 1921/1923 12010KT RMK PEU
Issued Valid From Valid To
Nov-18 @ 22:00 UTC
(7 hours ago)
Nov-19 @ 00:00 UTC
(5 hours ago)
Nov-20 @ 00:00 UTC
(in 19 hours)
Nov-19 @ 00:00 to Nov-19 @ 11:00
TAF SBRF 182200Z 1900/1924 14011KT 9000 SCT020 TN26/1908Z TX30/1915Z
Wind Visibility Clouds
140° at 11 knots 8,996 meters
  • Scattered at 2,000' AGL
Becoming Nov-19 @ 11:00 to Nov-19 @ 21:00
BECMG 1911/1913 12015KT
Wind Visibility Clouds
120° at 15 knots 8,996 meters
  • Scattered at 2,000' AGL
Becoming Nov-19 @ 21:00 to Nov-20 @ 00:00
BECMG 1921/1923 12010KT RMK PEU
Wind Visibility Clouds Conditions
120° at 10 knots 8,996 meters
  • Scattered at 2,000' AGL
  • Ice pellets
TAF SBRF 182200Z 1900/1924 14011KT 9000 SCT020 TN26/1908Z TX30/1915Z BECMG 1911/1913 12015KT BECMG 1921/1923 12010KT RMK PEU
Issued Nov-18 @ 22:00 UTC
(7 hours ago)
Valid From Nov-19 @ 00:00 UTC
(5 hours ago)
Valid To Nov-20 @ 00:00 UTC
(in 19 hours)
Nov-19 @ 00:00 - Nov-19 @ 11:00
Wind Visibility
140° at 11 knots 8,996 meters
Clouds
  • Scattered at 2,000' AGL
Becoming Nov-19 @ 11:00 - Nov-19 @ 21:00
Wind Visibility
120° at 15 knots 8,996 meters
Clouds
  • Scattered at 2,000' AGL
Becoming Nov-19 @ 21:00 - Nov-20 @ 00:00
Wind Visibility
120° at 10 knots 8,996 meters
Clouds
  • Scattered at 2,000' AGL
Conditions
  • Ice pellets